• Join FlightAware (Why Join?)
  • Login
  • US Flag 
10:19AM EDT


 

Airport Tracker/Info


-or-


 

Live Flight TrackerFlight Track Log ✈ SAS403 ✈ 13-Jul-2013 ✈ ESSA / ARN - EKCH / CPH

Flight Track Log - Related Links

Times and Time Zones

All times are in EDT time to prevent confusion due to time zone crossing. See the SAS403 flight status page for this flight to view local times or setup timezone preferences in your user account.

Time Position Orientation Groundspeed Altitude Reporting Facility
EDT Latitude Longitude Course Direction KTS MPH feet Rate Location/Type
04:11AM 59.4298 17.5880 217° Southwest  Level Estimated
04:12AM 59.3556 17.4788 217° Southwest  Level Estimated
04:13AM 59.2813 17.3700 217° Southwest  Level Estimated
04:14AM 59.2069 17.2617 217° Southwest  Level Estimated
04:15AM 59.1324 17.1539 217° Southwest  Level Estimated
04:16AM 59.0578 17.0466 217° Southwest  Level Estimated
04:17AM 58.9832 16.9397 216° Southwest  Level Estimated
04:18AM 58.9084 16.8333 216° Southwest  Level Estimated
04:19AM 58.8336 16.7273 216° Southwest  Level Estimated
04:20AM 58.7586 16.6218 216° Southwest  Level Estimated
04:21AM 58.6836 16.5168 216° Southwest  Level Estimated
04:22AM 58.6085 16.4122 216° Southwest  Level Estimated
04:23AM 58.5333 16.3081 216° Southwest  Level Estimated
04:24AM 58.4580 16.2044 216° Southwest  Level Estimated
04:25AM 58.3748 16.0904 216° Southwest  Level Estimated
04:26AM 58.2915 15.9769 216° Southwest  Level Estimated
04:27AM 58.2081 15.8640 216° Southwest  Level Estimated
04:28AM 58.1246 15.7516 215° Southwest  Level Estimated
04:29AM 58.0410 15.6398 215° Southwest  Level Estimated
04:30AM 57.9573 15.5284 215° Southwest  Level Estimated
04:31AM 57.8735 15.4176 215° Southwest  Level Estimated
04:32AM 57.7896 15.3073 215° Southwest  Level Estimated
04:33AM 57.7056 15.1975 215° Southwest  Level Estimated
04:34AM 57.6215 15.0882 215° Southwest  Level Estimated
04:35AM 57.5373 14.9795 215° Southwest  Level Estimated
04:36AM 57.4531 14.8712 215° Southwest  Level Estimated
04:37AM 57.3687 14.7634 215° Southwest  Level Estimated
04:38AM 57.2842 14.6561 214° Southwest  Level Estimated
04:39AM 57.1997 14.5493 214° Southwest  Level Estimated
04:40AM 57.1151 14.4430 214° Southwest  Level Estimated
04:41AM 57.0303 14.3372 214° Southwest  Level Estimated
04:42AM 56.9455 14.2318 214° Southwest  Level Estimated
04:43AM 56.8606 14.1270 214° Southwest  Level Estimated
04:44AM 56.7756 14.0226 214° Southwest  Level Estimated
04:45AM 56.6905 13.9187 214° Southwest  Level Estimated
04:46AM 56.6054 13.8153 214° Southwest  Level Estimated
04:47AM 56.5201 13.7123 214° Southwest  Level Estimated
04:48AM 56.4348 13.6097 214° Southwest  Level Estimated
04:49AM 56.3493 13.5077 214° Southwest  Level Estimated
04:50AM 56.2639 13.4061 213° Southwest  Level Estimated
04:51AM 56.1783 13.3049 213° Southwest  Level Estimated
04:52AM 56.0926 13.2042 213° Southwest  Level Estimated
04:53AM 56.0068 13.1040 213° Southwest  Level Estimated
04:54AM 55.9210 13.0042 213° Southwest  Level Estimated
04:55AM 55.8351 12.9048 213° Southwest  Level Estimated
04:56AM 55.7491 12.8059 213° Southwest  Level Estimated
04:57AM 55.6630 12.7074 213° Southwest  Level Estimated
04:58AM 55.6179 12.6560 213° Southwest  Level Estimated
04:59AM 55.6179 12.6560 159° South  Level Estimated
05:00AM 55.6179 12.6560 159° South  Level Estimated
05:01AM 55.6179 12.6560 159° South  Level Estimated
05:02AM 55.6179 12.6560 159° South  Level Estimated
05:03AM 55.6179 12.6560 159° South  Level Estimated
05:04AM 55.6179 12.6560 159° South  Level Estimated
05:05AM 55.6179 12.6560 159° South  Level Estimated
05:06AM 55.6179 12.6560 159° South  Level Estimated
05:07AM 55.6179 12.6560 159° South  Level Estimated
05:08AM 55.6179 12.6560 159° South  Level Estimated
05:09AM 55.6179 12.6560 159° South  Level Estimated
05:10AM 55.6179 12.6560 159° South  Level Estimated
05:11AM 55.6179 12.6560 159° South  Level Estimated
05:12AM 55.6179 12.6560 159° South  Level Estimated